CCGS Neocaligus — CG7677 — position and weather

sailwx.info

Track history (hours):
 
Tides and Currents Weather Stations Pressure Air Temp Water Temp Dewpoint Dewpoint Depression Visibility Wind Speed Wind Dir Waves Ship Positions

CCGS Neocaligus

Last reported at 2016-May-24 11:26 UTC. Time now 2016-May-24 11:51 UTC.
Position N 49°07' W 123°11'.

Length 23 m; draft 3.5 m.

Type: Fishing. MMSI: 316001759.

Date/timePositionNaut miles runAvg speedWind from/ knotsBaromVisibWave heightAir tempDewpointWater temp
2016-May-24 11:26N 49°07' W 123°11'0 0.0
2016-May-24 01:22N 49°07' W 123°11'0 0.1
2016-May-23 21:34N 49°07' W 123°12'5 4.6
2016-May-23 20:34N 49°08' W 123°19'1 0.8
2016-May-23 19:34N 49°09' W 123°18'5 4.8
2016-May-23 18:33N 49°04' W 123°18'2 2.3
2016-May-23 17:33N 49°02' W 123°16'3 3.2
2016-May-23 16:33N 49°04' W 123°19'0 0.1
2016-May-23 15:33N 49°04' W 123°19'1 0.6
2016-May-23 14:33N 49°05' W 123°19'6 0.5
2016-May-23 02:31N 49°07' W 123°11'0 0.0
2016-May-22 23:19N 49°07' W 123°11'4 5.6
2016-May-22 22:33N 49°06' W 123°18'2 2.0
2016-May-22 21:33N 49°05' W 123°19'3 3.1
2016-May-22 20:33N 49°03' W 123°16'3 3.0
2016-May-22 19:27N 49°01' W 123°12'0 0.3
2016-May-22 18:33N 49°01' W 123°11'1 0.8
2016-May-22 17:33N 49°01' W 123°12'5 5.4
2016-May-22 16:33N 49°03' W 123°20'9 8.7
2016-May-22 15:34N 49°08' W 123°30'9 9.2
2016-May-22 14:33N 49°12' W 123°43'9 9.1
2016-May-22 13:33N 49°13' W 123°57'0 0.2
2016-May-22 12:33N 49°13' W 123°57'0 0.0
2016-May-22 11:33N 49°13' W 123°57'0 0.0
2016-May-22 10:33N 49°13' W 123°57'0 0.0
2016-May-22 09:33N 49°13' W 123°57'0 0.0
2016-May-22 08:33N 49°13' W 123°57'0 0.0
2016-May-22 07:33N 49°13' W 123°57'0 0.0
2016-May-22 06:33N 49°13' W 123°57'0 0.0
2016-May-22 05:33N 49°13' W 123°57'0 0.0
2016-May-22 04:33N 49°13' W 123°57'0 0.0
2016-May-22 03:33N 49°13' W 123°57'0 0.0
2016-May-22 02:33N 49°13' W 123°57'0 0.0
2016-May-22 01:33N 49°13' W 123°57'16 7.9
2016-May-21 23:33N 49°10' W 123°34'9 9.4
2016-May-21 22:32N 49°04' W 123°22'8 7.7
2016-May-21 21:33N 49°01' W 123°11'0 0.2
2016-May-21 20:32N 49°01' W 123°12'1 1.2
2016-May-21 19:34N 49°01' W 123°13'1 1.0
2016-May-21 18:33N 49°01' W 123°14'2 2.0
2016-May-21 17:33N 49°03' W 123°17'4 4.4
2016-May-21 16:34N 49°07' W 123°19'0 0.3
2016-May-21 15:33N 49°07' W 123°19'1 0.8
2016-May-21 14:33N 49°06' W 123°18'4 3.8
2016-May-21 13:26N 49°07' W 123°11'0 0.0
2016-May-21 12:21N 49°07' W 123°11'0 0.0
2016-May-21 09:29N 49°07' W 123°11'0 0.0
2016-May-21 08:33N 49°07' W 123°11'0 0.0
2016-May-21 07:24N 49°07' W 123°11'0 0.0
2016-May-21 04:09N 49°07' W 123°11'0 0.0
2016-May-21 03:33N 49°07' W 123°11'0 0.0
2016-May-21 01:23N 49°07' W 123°11'3 0.7
2016-May-20 21:34N 49°07' W 123°15'3 3.1
2016-May-20 20:33N 49°05' W 123°19'7 6.3
2016-May-20 19:30N 49°01' W 123°12'9 4.4
2016-May-20 17:25N 48°60' W 122°58'2 1.5
2016-May-20 16:19N 48°60' W 122°55'3 3.0
2016-May-20 15:22N 49°00' W 122°51'2 0.2
2016-May-20 06:24N 49°01' W 122°48'0 0.1
2016-May-19 23:33N 49°00' W 122°49'5 5.2
2016-May-19 22:33N 49°00' W 122°57'6 6.4
2016-May-19 21:33N 48°58' W 123°06'8 8.4
2016-May-19 20:33N 49°02' W 123°17'9 8.6
2016-May-19 19:33N 49°06' W 123°29'9 9.2
2016-May-19 18:33N 49°10' W 123°41'9 8.7
2016-May-19 17:33N 49°12' W 123°54'2 2.1
2016-May-19 16:29N 49°13' W 123°57'0 0.0
2016-May-19 15:23N 49°13' W 123°57'0 0.0
2016-May-19 14:20N 49°13' W 123°57'0 0.0
2016-May-19 13:32N 49°13' W 123°57'0 0.0
2016-May-19 12:29N 49°13' W 123°57'0 0.0
2016-May-19 11:23N 49°13' W 123°57'0 0.0
2016-May-19 10:20N 49°13' W 123°57'0 0.0
2016-May-19 09:32N 49°13' W 123°57'0 0.0
2016-May-19 08:32N 49°13' W 123°57'0 0.0
2016-May-19 07:32N 49°13' W 123°57'0 0.0
2016-May-19 06:32N 49°13' W 123°57'0 0.0
2016-May-19 04:29N 49°13' W 123°57'0 0.0
2016-May-19 03:29N 49°13' W 123°57'0 0.0
2016-May-19 02:23N 49°13' W 123°57'0 0.0
2016-May-19 01:29N 49°13' W 123°57'0 0.0
2016-May-18 21:32N 49°13' W 123°57'0 0.0
2016-May-18 19:14N 49°13' W 123°57'0 0.0
2016-May-18 18:29N 49°13' W 123°57'0 0.0
2016-May-18 17:33N 49°13' W 123°57'2 1.6
2016-May-18 16:32N 49°13' W 123°55'8 8.6
2016-May-18 15:33N 49°17' W 123°44'9 8.5
2016-May-18 14:33N 49°22' W 123°33'3 2.8
2016-May-18 13:33N 49°24' W 123°30'0 0.0
2016-May-18 12:32N 49°24' W 123°30'0 0.0
2016-May-18 11:33N 49°24' W 123°30'0 0.0
2016-May-18 10:33N 49°24' W 123°30'0 0.0
2016-May-18 09:33N 49°24' W 123°30'0 0.0
2016-May-18 08:33N 49°24' W 123°30'0 0.0
2016-May-18 07:33N 49°24' W 123°30'0 0.0
2016-May-18 06:33N 49°24' W 123°30'0 0.0
2016-May-18 05:33N 49°24' W 123°30'0 0.0
2016-May-18 04:33N 49°24' W 123°30'0 0.0
2016-May-18 03:33N 49°24' W 123°30'0 0.0
2016-May-18 02:33N 49°24' W 123°30'0 0.0
2016-May-18 01:33N 49°24' W 123°30'2 2.2
2016-May-18 00:33N 49°26' W 123°28'6 6.2
2016-May-17 23:33N 49°32' W 123°26'2 1.6
2016-May-17 22:33N 49°33' W 123°24'3 3.1
2016-May-17 21:33N 49°33' W 123°20'2 2.1
2016-May-17 20:33N 49°33' W 123°16'2 1.9
2016-May-17 19:33N 49°35' W 123°16'2 1.9
2016-May-17 18:33N 49°36' W 123°15'2 1.9
2016-May-17 17:32N 49°38' W 123°15'2 0.7
2016-May-17 14:33N 49°37' W 123°13'4 4.3
2016-May-17 13:33N 49°35' W 123°19'0 0.1
2016-May-17 12:33N 49°35' W 123°19'0 0.0
2016-May-17 11:33N 49°35' W 123°19'0 0.0
2016-May-17 10:33N 49°35' W 123°19'0 0.0
2016-May-17 09:33N 49°35' W 123°19'0 0.0
2016-May-17 08:33N 49°35' W 123°19'0 0.0
2016-May-17 07:33N 49°35' W 123°19'0 0.0
2016-May-17 06:33N 49°35' W 123°19'0 0.0
2016-May-17 05:33N 49°35' W 123°19'0 0.0
2016-May-17 04:33N 49°35' W 123°19'0 0.0
2016-May-17 03:33N 49°35' W 123°19'0 0.0
2016-May-17 02:33N 49°35' W 123°19'0 0.0
2016-May-17 01:33N 49°35' W 123°19'0 0.0
2016-May-17 00:33N 49°35' W 123°19'3 3.4
2016-May-16 23:33N 49°33' W 123°15'4 4.1
2016-May-16 22:33N 49°29' W 123°15'3 2.7
2016-May-16 21:34N 49°27' W 123°19'2 1.6
2016-May-16 20:33N 49°26' W 123°21'0 0.4
2016-May-16 19:33N 49°26' W 123°21'1 1.1
2016-May-16 18:33N 49°25' W 123°19'1 0.9
2016-May-16 17:33N 49°25' W 123°18'4 3.6
2016-May-16 16:33N 49°22' W 123°19'2 1.8
2016-May-16 15:33N 49°20' W 123°21'0 0.4
2016-May-16 14:33N 49°20' W 123°21'3 2.7
2016-May-16 13:33N 49°23' W 123°20'0 0.0
2016-May-16 12:33N 49°23' W 123°20'0 0.0
2016-May-16 11:33N 49°23' W 123°20'0 0.0
2016-May-16 10:33N 49°23' W 123°20'0 0.0
2016-May-16 09:33N 49°23' W 123°20'0 0.0
2016-May-16 08:33N 49°23' W 123°20'0 0.0
2016-May-16 07:33N 49°23' W 123°20'0 0.0
2016-May-16 06:33N 49°23' W 123°20'0 0.0
2016-May-16 05:33N 49°23' W 123°20'0 0.0
2016-May-16 04:33N 49°23' W 123°20'0 0.0
2016-May-16 03:33N 49°23' W 123°20'0 0.0
2016-May-16 02:33N 49°23' W 123°20'0 0.0
2016-May-16 01:33N 49°23' W 123°20'7 6.9
2016-May-16 00:33N 49°16' W 123°24'9 9.1
2016-May-15 23:33N 49°08' W 123°30'9 8.9
2016-May-15 22:33N 49°00' W 123°36'8 8.3
2016-May-15 21:33N 48°52' W 123°35'7 7.2
2016-May-15 20:31N 48°44' W 123°34'0 0.1
2016-May-15 19:33N 48°44' W 123°34'1 1.2
2016-May-15 18:25N 48°45' W 123°36'1 0.9
2016-May-15 17:26N 48°45' W 123°37'0 0.2
2016-May-15 16:28N 48°45' W 123°37'1 1.2
2016-May-15 15:34N 48°45' W 123°36'0 0.3
2016-May-15 14:14N 48°44' W 123°35'1 2.0
2016-May-15 13:33N 48°44' W 123°37'0 0.0
2016-May-15 12:33N 48°44' W 123°37'0 0.0
2016-May-15 11:34N 48°44' W 123°37'0 0.0
2016-May-15 10:17N 48°44' W 123°37'0 0.0
2016-May-15 07:05N 48°44' W 123°37'0 0.0
2016-May-15 06:06N 48°44' W 123°37'0 0.0
2016-May-15 05:21N 48°44' W 123°37'0 0.0
2016-May-15 04:33N 48°44' W 123°37'0 0.0
2016-May-15 03:33N 48°44' W 123°37'0 0.0
2016-May-15 02:31N 48°44' W 123°37'3 1.1
2016-May-15 00:08N 48°44' W 123°33'1 1.7
2016-May-14 23:20N 48°45' W 123°34'1 1.2
2016-May-14 22:32N 48°44' W 123°33'1 0.8
2016-May-14 21:24N 48°45' W 123°34'0 0.4
2016-May-14 20:31N 48°45' W 123°34'1 0.8
2016-May-14 19:29N 48°46' W 123°34'0 0.3
2016-May-14 18:33N 48°46' W 123°35'7 6.9
2016-May-14 17:32N 48°53' W 123°37'8 8.6
2016-May-14 16:33N 48°60' W 123°44'9 8.6
2016-May-14 15:33N 49°08' W 123°49'7 7.5
2016-May-14 14:34N 49°13' W 123°57'0 0.0
2016-May-14 13:21N 49°13' W 123°57'0 0.0
2016-May-14 12:33N 49°13' W 123°57'0 0.0
2016-May-14 11:33N 49°13' W 123°57'  
Track history (hours):
 
Tides and Currents Weather Stations Pressure Air Temp Water Temp Dewpoint Dewpoint Depression Visibility Wind Speed Wind Dir Waves Ship Positions

CCGS Neocaligus

Last reported at 2016-May-24 11:26 UTC. Time now 2016-May-24 11:51 UTC.
Position N 49°07' W 123°11'.

Length 23 m; draft 3.5 m.

Type: Fishing. MMSI: 316001759.

Date/timePositionNaut miles runAvg speedWind from/ knotsBaromVisibWave heightAir tempDewpointWater temp
2016-May-24 11:26N 49°07' W 123°11'0 0.0
2016-May-24 01:22N 49°07' W 123°11'0 0.1
2016-May-23 21:34N 49°07' W 123°12'5 4.6
2016-May-23 20:34N 49°08' W 123°19'1 0.8
2016-May-23 19:34N 49°09' W 123°18'5 4.8
2016-May-23 18:33N 49°04' W 123°18'2 2.3
2016-May-23 17:33N 49°02' W 123°16'3 3.2
2016-May-23 16:33N 49°04' W 123°19'0 0.1
2016-May-23 15:33N 49°04' W 123°19'1 0.6
2016-May-23 14:33N 49°05' W 123°19'6 0.5
2016-May-23 02:31N 49°07' W 123°11'0 0.0
2016-May-22 23:19N 49°07' W 123°11'4 5.6
2016-May-22 22:33N 49°06' W 123°18'2 2.0
2016-May-22 21:33N 49°05' W 123°19'3 3.1
2016-May-22 20:33N 49°03' W 123°16'3 3.0
2016-May-22 19:27N 49°01' W 123°12'0 0.3
2016-May-22 18:33N 49°01' W 123°11'1 0.8
2016-May-22 17:33N 49°01' W 123°12'5 5.4
2016-May-22 16:33N 49°03' W 123°20'9 8.7
2016-May-22 15:34N 49°08' W 123°30'9 9.2
2016-May-22 14:33N 49°12' W 123°43'9 9.1
2016-May-22 13:33N 49°13' W 123°57'0 0.2
2016-May-22 12:33N 49°13' W 123°57'0 0.0
2016-May-22 11:33N 49°13' W 123°57'0 0.0
2016-May-22 10:33N 49°13' W 123°57'0 0.0
2016-May-22 09:33N 49°13' W 123°57'0 0.0
2016-May-22 08:33N 49°13' W 123°57'0 0.0
2016-May-22 07:33N 49°13' W 123°57'0 0.0
2016-May-22 06:33N 49°13' W 123°57'0 0.0
2016-May-22 05:33N 49°13' W 123°57'0 0.0
2016-May-22 04:33N 49°13' W 123°57'0 0.0
2016-May-22 03:33N 49°13' W 123°57'0 0.0
2016-May-22 02:33N 49°13' W 123°57'0 0.0
2016-May-22 01:33N 49°13' W 123°57'16 7.9
2016-May-21 23:33N 49°10' W 123°34'9 9.4
2016-May-21 22:32N 49°04' W 123°22'8 7.7
2016-May-21 21:33N 49°01' W 123°11'0 0.2
2016-May-21 20:32N 49°01' W 123°12'1 1.2
2016-May-21 19:34N 49°01' W 123°13'1 1.0
2016-May-21 18:33N 49°01' W 123°14'2 2.0
2016-May-21 17:33N 49°03' W 123°17'4 4.4
2016-May-21 16:34N 49°07' W 123°19'0 0.3
2016-May-21 15:33N 49°07' W 123°19'1 0.8
2016-May-21 14:33N 49°06' W 123°18'4 3.8
2016-May-21 13:26N 49°07' W 123°11'0 0.0
2016-May-21 12:21N 49°07' W 123°11'0 0.0
2016-May-21 09:29N 49°07' W 123°11'0 0.0
2016-May-21 08:33N 49°07' W 123°11'0 0.0
2016-May-21 07:24N 49°07' W 123°11'0 0.0
2016-May-21 04:09N 49°07' W 123°11'0 0.0
2016-May-21 03:33N 49°07' W 123°11'0 0.0
2016-May-21 01:23N 49°07' W 123°11'3 0.7
2016-May-20 21:34N 49°07' W 123°15'3 3.1
2016-May-20 20:33N 49°05' W 123°19'7 6.3
2016-May-20 19:30N 49°01' W 123°12'9 4.4
2016-May-20 17:25N 48°60' W 122°58'2 1.5
2016-May-20 16:19N 48°60' W 122°55'3 3.0
2016-May-20 15:22N 49°00' W 122°51'2 0.2
2016-May-20 06:24N 49°01' W 122°48'0 0.1
2016-May-19 23:33N 49°00' W 122°49'5 5.2
2016-May-19 22:33N 49°00' W 122°57'6 6.4
2016-May-19 21:33N 48°58' W 123°06'8 8.4
2016-May-19 20:33N 49°02' W 123°17'9 8.6
2016-May-19 19:33N 49°06' W 123°29'9 9.2
2016-May-19 18:33N 49°10' W 123°41'9 8.7
2016-May-19 17:33N 49°12' W 123°54'2 2.1
2016-May-19 16:29N 49°13' W 123°57'0 0.0
2016-May-19 15:23N 49°13' W 123°57'0 0.0
2016-May-19 14:20N 49°13' W 123°57'0 0.0
2016-May-19 13:32N 49°13' W 123°57'0 0.0
2016-May-19 12:29N 49°13' W 123°57'0 0.0
2016-May-19 11:23N 49°13' W 123°57'0 0.0
2016-May-19 10:20N 49°13' W 123°57'0 0.0
2016-May-19 09:32N 49°13' W 123°57'0 0.0
2016-May-19 08:32N 49°13' W 123°57'0 0.0
2016-May-19 07:32N 49°13' W 123°57'0 0.0
2016-May-19 06:32N 49°13' W 123°57'0 0.0
2016-May-19 04:29N 49°13' W 123°57'0 0.0
2016-May-19 03:29N 49°13' W 123°57'0 0.0
2016-May-19 02:23N 49°13' W 123°57'0 0.0
2016-May-19 01:29N 49°13' W 123°57'0 0.0
2016-May-18 21:32N 49°13' W 123°57'0 0.0
2016-May-18 19:14N 49°13' W 123°57'0 0.0
2016-May-18 18:29N 49°13' W 123°57'0 0.0
2016-May-18 17:33N 49°13' W 123°57'2 1.6
2016-May-18 16:32N 49°13' W 123°55'8 8.6
2016-May-18 15:33N 49°17' W 123°44'9 8.5
2016-May-18 14:33N 49°22' W 123°33'3 2.8
2016-May-18 13:33N 49°24' W 123°30'0 0.0
2016-May-18 12:32N 49°24' W 123°30'0 0.0
2016-May-18 11:33N 49°24' W 123°30'0 0.0
2016-May-18 10:33N 49°24' W 123°30'0 0.0
2016-May-18 09:33N 49°24' W 123°30'0 0.0
2016-May-18 08:33N 49°24' W 123°30'0 0.0
2016-May-18 07:33N 49°24' W 123°30'0 0.0
2016-May-18 06:33N 49°24' W 123°30'0 0.0
2016-May-18 05:33N 49°24' W 123°30'0 0.0
2016-May-18 04:33N 49°24' W 123°30'0 0.0
2016-May-18 03:33N 49°24' W 123°30'0 0.0
2016-May-18 02:33N 49°24' W 123°30'0 0.0
2016-May-18 01:33N 49°24' W 123°30'2 2.2
2016-May-18 00:33N 49°26' W 123°28'6 6.2
2016-May-17 23:33N 49°32' W 123°26'2 1.6
2016-May-17 22:33N 49°33' W 123°24'3 3.1
2016-May-17 21:33N 49°33' W 123°20'2 2.1
2016-May-17 20:33N 49°33' W 123°16'2 1.9
2016-May-17 19:33N 49°35' W 123°16'2 1.9
2016-May-17 18:33N 49°36' W 123°15'2 1.9
2016-May-17 17:32N 49°38' W 123°15'2 0.7
2016-May-17 14:33N 49°37' W 123°13'4 4.3
2016-May-17 13:33N 49°35' W 123°19'0 0.1
2016-May-17 12:33N 49°35' W 123°19'0 0.0
2016-May-17 11:33N 49°35' W 123°19'0 0.0
2016-May-17 10:33N 49°35' W 123°19'0 0.0
2016-May-17 09:33N 49°35' W 123°19'0 0.0
2016-May-17 08:33N 49°35' W 123°19'0 0.0
2016-May-17 07:33N 49°35' W 123°19'0 0.0
2016-May-17 06:33N 49°35' W 123°19'0 0.0
2016-May-17 05:33N 49°35' W 123°19'0 0.0
2016-May-17 04:33N 49°35' W 123°19'0 0.0
2016-May-17 03:33N 49°35' W 123°19'0 0.0
2016-May-17 02:33N 49°35' W 123°19'0 0.0
2016-May-17 01:33N 49°35' W 123°19'0 0.0
2016-May-17 00:33N 49°35' W 123°19'3 3.4
2016-May-16 23:33N 49°33' W 123°15'4 4.1
2016-May-16 22:33N 49°29' W 123°15'3 2.7
2016-May-16 21:34N 49°27' W 123°19'2 1.6
2016-May-16 20:33N 49°26' W 123°21'0 0.4
2016-May-16 19:33N 49°26' W 123°21'1 1.1
2016-May-16 18:33N 49°25' W 123°19'1 0.9
2016-May-16 17:33N 49°25' W 123°18'4 3.6
2016-May-16 16:33N 49°22' W 123°19'2 1.8
2016-May-16 15:33N 49°20' W 123°21'0 0.4
2016-May-16 14:33N 49°20' W 123°21'3 2.7
2016-May-16 13:33N 49°23' W 123°20'0 0.0
2016-May-16 12:33N 49°23' W 123°20'0 0.0
2016-May-16 11:33N 49°23' W 123°20'0 0.0
2016-May-16 10:33N 49°23' W 123°20'0 0.0
2016-May-16 09:33N 49°23' W 123°20'0 0.0
2016-May-16 08:33N 49°23' W 123°20'0 0.0
2016-May-16 07:33N 49°23' W 123°20'0 0.0
2016-May-16 06:33N 49°23' W 123°20'0 0.0
2016-May-16 05:33N 49°23' W 123°20'0 0.0
2016-May-16 04:33N 49°23' W 123°20'0 0.0
2016-May-16 03:33N 49°23' W 123°20'0 0.0
2016-May-16 02:33N 49°23' W 123°20'0 0.0
2016-May-16 01:33N 49°23' W 123°20'7 6.9
2016-May-16 00:33N 49°16' W 123°24'9 9.1
2016-May-15 23:33N 49°08' W 123°30'9 8.9
2016-May-15 22:33N 49°00' W 123°36'8 8.3
2016-May-15 21:33N 48°52' W 123°35'7 7.2
2016-May-15 20:31N 48°44' W 123°34'0 0.1
2016-May-15 19:33N 48°44' W 123°34'1 1.2
2016-May-15 18:25N 48°45' W 123°36'1 0.9
2016-May-15 17:26N 48°45' W 123°37'0 0.2
2016-May-15 16:28N 48°45' W 123°37'1 1.2
2016-May-15 15:34N 48°45' W 123°36'0 0.3
2016-May-15 14:14N 48°44' W 123°35'1 2.0
2016-May-15 13:33N 48°44' W 123°37'0 0.0
2016-May-15 12:33N 48°44' W 123°37'0 0.0
2016-May-15 11:34N 48°44' W 123°37'0 0.0
2016-May-15 10:17N 48°44' W 123°37'0 0.0
2016-May-15 07:05N 48°44' W 123°37'0 0.0
2016-May-15 06:06N 48°44' W 123°37'0 0.0
2016-May-15 05:21N 48°44' W 123°37'0 0.0
2016-May-15 04:33N 48°44' W 123°37'0 0.0
2016-May-15 03:33N 48°44' W 123°37'0 0.0
2016-May-15 02:31N 48°44' W 123°37'3 1.1
2016-May-15 00:08N 48°44' W 123°33'1 1.7
2016-May-14 23:20N 48°45' W 123°34'1 1.2
2016-May-14 22:32N 48°44' W 123°33'1 0.8
2016-May-14 21:24N 48°45' W 123°34'0 0.4
2016-May-14 20:31N 48°45' W 123°34'1 0.8
2016-May-14 19:29N 48°46' W 123°34'0 0.3
2016-May-14 18:33N 48°46' W 123°35'7 6.9
2016-May-14 17:32N 48°53' W 123°37'8 8.6
2016-May-14 16:33N 48°60' W 123°44'9 8.6
2016-May-14 15:33N 49°08' W 123°49'7 7.5
2016-May-14 14:34N 49°13' W 123°57'0 0.0
2016-May-14 13:21N 49°13' W 123°57'0 0.0
2016-May-14 12:33N 49°13' W 123°57'0 0.0
2016-May-14 11:33N 49°13' W 123°57'  

Dump ship's entire track history